Fort Greely, AK

11:59 PM AKST on February 06, 2016 (GMT -0900)
Allen Army Air Field | | Change Station
CLOSE
Current Station
Airport
Location: Big Delta,
Elevation: 1306 ft
Nearby Weather Stations

Elev 1306 ft 63.99 °N, 145.72 °W | Updated 6 minutes ago

Clear
Clear
19 °F
Feels Like 6 °F
N
13
Wind Variable Wind from ESE

Today
High -- | Low -- °F
--% Chance of Precip.
Yesterday
High -- | Low -- °F
Precip. -- in
Pressure 30.08 in
Visibility 10.0 miles
Clouds Clear
Windchill 6 °F
Dew Point 9 °F
Humidity 65%
Rainfall 0.00 in
Snow Depth Not available.
9:07 AM 4:47 PM
Waning Crescent, 2% visible
METAR PABI 070853Z AUTO 11011KT 10SM CLR M07/M13 A2996 RMK AO2 SLP186 T10721128 410611144 51019 TSNO $
Pressure 30.08 in
Visibility 10.0 miles
Clouds Clear
Windchill 6 °F
Dew Point 9 °F
Humidity 65%
Rainfall 0.00 in
Snow Depth Not available.
9:07 AM 4:47 PM
Waning Crescent, 2% visible
METAR PABI 070853Z AUTO 11011KT 10SM CLR M07/M13 A2996 RMK AO2 SLP186 T10721128 410611144 51019 TSNO $

10-Day Weather Forecast

Almanac

Astronomy

Feb. 06, 2016 Rise Set
Actual Time
Civil Twilight
Nautical Twilight
Astronomical Twilight
Moon
Length of Visible Light
Length of Day
Tomorrow will be .
, % of the Moon is Illuminated

Today's Extremes

State Highs State Lows

Community

WunderPhotos

Upload Photos

1,891,171 photos uploaded!

WunderBlog® & News

Nearby

Air Quality

  Air Quality AQ Index Pollutant
Not available.

Snow Depth

Station Depth Elevation

Earthquake Activity

City Distance Mag. Time & Date
Minimum magnitude displayed is 2.5.

Coastal Water Temperatures

Place Temperature

Stations

Nearby Weather Stations

Station Location Temp. Windchill Dew Point Humidity Wind Precip. Elev Updated Type
                   

Watches & Warnings

There are currently no watches in effect.